Boone County Airport
KHRO : now visible

Airfield :











YOU CAN JOIN US ON...

 
LOGIN :

Register | Disclaimer

   EN    FR    IT 

 









Legend :    VFR   Marginal VFR   IFR   Intensive IFR   Very Intensive IFR
Visi :
Ceiling :
>= 8 km
>= 3000ft
5 to 8 km
1000 to 3000 ft
1500m to 5 km
500 to 1000 ft
800 to 1500m
200 to 500 ft
< 800m
< 200 ft
Symbols :   Thunderstorms  Fog  Heavy snow  Heavy precipitations  Wind > 20 kt






- Airport Elevation : 1365 ft
- IATA code : HRO


KHRO - Boone County

CURRENT METAR :
  • 290053Z AUTO 28003KT 10SM CLR 14/06 A3005 RMK AO2 SLP171 T01390056

EXPIRED METARs :
  • 282353Z AUTO 31006KT 10SM CLR 16/06 A3003 RMK AO2 SLP165 T01560061 10200 20156 53006
  • 282253Z AUTO 32007KT 10SM BKN080 18/06 A3002 RMK AO2 SLP160 T01780056

TAF KHRO
Valid from the 29 at 00:00 until the 30 at 00:00 UTC


282320Z 2900/2924 32008KT P6SM SCT080 BKN250
FM290300 VRB04KT P6SM FEW250
FM291600 31009KT P6SM FEW250
KZME FIR / North America



MET'MAP, your aeronautical weather chart ! - Copyright ORBIFLY December 2007 - Disclaimer

ORBIFLY MET'MAP TEAM :

Programming & Development : Alexandra Zaïnal
Concept & original design : Baudouin d'Aumeries
Assistance for programming : Marc-Olivier Méhu
Technical & hardware support : Manuel Goepfert

Contact : metmap@orbifly.com




SOURCES & CREDITS :

   NOAA       Earth
Advisory